Doylestown, Pennsylvania
Current Conditions -  °F | °C
As of 3:28 PM on Monday 26 Jan 2015 (Local Time) from KDYL Reporting Station
Light Snow Light Snow  
Wind Chill:   Ceiling: 3400
Heat Index: 21°   Visibility: 5mi
Dew Point: 18°   Wind: 12mph
Humidity: 88%   Direction: 30°NNE
Pressure: 29.78"   Gusts: 22mph
Location:  40.31°N, 75.13°W
Report Text: KDYL 262028Z AUTO 03010G19KT 5SM -SN BR SCT029 BKN034 OVC050 M06/M08 A2978 RMK AO2 P0000 T10611078
Loading
Personal Weather Stations






























Interactive Weather Map New forecast layout! Learn more

10-Day Weather Forecast

Advertisements
Track Severe Weather on mobile